Terminal Aerodrome Forecast
Issued by NWS

Current Version | Previous Version | Graphics & Text | Print | Product List | Glossary On
Versions: 1 2 3 4 5 6 7 8 9 10 11 12 13 14 15 16 17 18 19 20 21 22 23 24 25 26 27 28 29 30 31 32 33 34 35 36 37 38 39
000
FTUS41 KRNK 291729
TAFLWB
TAF
KLWB 291729Z 2918/3018 02007KT P6SM -SNPL OVC050
      TEMPO 2918/2920 5SM -SNPL
     FM292000 22008KT P6SM SCT025 OVC050
     FM300000 27010KT P6SM OVC025
     FM300300 27012G22KT 5SM -SHSN OVC015
     FM300900 29012G22KT P6SM -SHSN OVC025
     FM301500 31016G26KT P6SM -SHSN OVC035=

USA.gov is the U.S. government's official web portal to all federal, state and local government web resources and services.